Terminal Aerodrome Forecast
Issued by NWS Raleigh/Durham, NC

Home | Current Version | Previous Version | Text Only | Print | Product List | Glossary On
Versions: 1 2 3 4 5 6 7 8 9 10 11 12 13 14
000
FTUS42 KRAH 202107 AAA
TAFFAY
TAF AMD
KFAY 202107Z 2021/2118 26007KT P6SM BKN035
      TEMPO 2021/2024 OVC030
     FM210400 VRB03KT 4SM BR OVC025
     FM210700 00000KT 1/2SM FG OVC001
     FM211200 14005KT 1/2SM FG OVC004
     FM211500 14005KT 3SM BR OVC010=

USA.gov is the U.S. government's official web portal to all federal, state and local government web resources and services.